sensor_id;sensor_type;location;lat;lon;timestamp;P1;durP1;ratioP1;P2;durP2;ratioP2
33553;SDS011;19885;42.208;24.952;2022-12-18T00:01:20;35.50;;;23.57;;
33553;SDS011;19885;42.208;24.952;2022-12-18T00:03:47;37.13;;;22.50;;
33553;SDS011;19885;42.208;24.952;2022-12-18T00:06:14;37.30;;;22.37;;
33553;SDS011;19885;42.208;24.952;2022-12-18T00:08:41;31.90;;;21.77;;
33553;SDS011;19885;42.208;24.952;2022-12-18T00:11:08;39.30;;;22.87;;
33553;SDS011;19885;42.208;24.952;2022-12-18T00:13:38;44.27;;;24.07;;
33553;SDS011;19885;42.208;24.952;2022-12-18T00:16:05;38.50;;;22.23;;
33553;SDS011;19885;42.208;24.952;2022-12-18T00:18:33;34.57;;;21.13;;
33553;SDS011;19885;42.208;24.952;2022-12-18T00:20:59;37.97;;;23.43;;
33553;SDS011;19885;42.208;24.952;2022-12-18T00:23:26;45.03;;;25.13;;
33553;SDS011;19885;42.208;24.952;2022-12-18T00:25:52;40.43;;;22.27;;
33553;SDS011;19885;42.208;24.952;2022-12-18T00:28:17;41.30;;;24.60;;
33553;SDS011;19885;42.208;24.952;2022-12-18T00:30:43;41.50;;;22.07;;
33553;SDS011;19885;42.208;24.952;2022-12-18T00:33:09;47.07;;;27.87;;
33553;SDS011;19885;42.208;24.952;2022-12-18T00:35:34;55.80;;;31.47;;
33553;SDS011;19885;42.208;24.952;2022-12-18T00:38:02;70.30;;;30.67;;
33553;SDS011;19885;42.208;24.952;2022-12-18T00:40:27;76.67;;;32.00;;
33553;SDS011;19885;42.208;24.952;2022-12-18T00:42:52;129.67;;;38.93;;
33553;SDS011;19885;42.208;24.952;2022-12-18T00:45:21;83.30;;;31.57;;
33553;SDS011;19885;42.208;24.952;2022-12-18T00:47:48;78.37;;;28.23;;
33553;SDS011;19885;42.208;24.952;2022-12-18T00:50:14;139.87;;;33.27;;
33553;SDS011;19885;42.208;24.952;2022-12-18T00:52:39;160.70;;;35.00;;
33553;SDS011;19885;42.208;24.952;2022-12-18T00:55:05;138.40;;;34.77;;
33553;SDS011;19885;42.208;24.952;2022-12-18T00:57:30;154.70;;;38.33;;
33553;SDS011;19885;42.208;24.952;2022-12-18T00:59:56;111.17;;;35.63;;
33553;SDS011;19885;42.208;24.952;2022-12-18T01:02:21;95.73;;;34.63;;
33553;SDS011;19885;42.208;24.952;2022-12-18T01:04:46;60.57;;;31.27;;
33553;SDS011;19885;42.208;24.952;2022-12-18T01:07:12;63.40;;;31.57;;
33553;SDS011;19885;42.208;24.952;2022-12-18T01:09:37;56.53;;;29.67;;
33553;SDS011;19885;42.208;24.952;2022-12-18T01:12:03;53.17;;;30.50;;
33553;SDS011;19885;42.208;24.952;2022-12-18T01:14:28;53.60;;;30.60;;
33553;SDS011;19885;42.208;24.952;2022-12-18T01:16:54;62.87;;;30.53;;
33553;SDS011;19885;42.208;24.952;2022-12-18T01:19:19;55.63;;;30.20;;
33553;SDS011;19885;42.208;24.952;2022-12-18T01:21:45;59.53;;;31.50;;
33553;SDS011;19885;42.208;24.952;2022-12-18T01:24:11;56.83;;;29.00;;
33553;SDS011;19885;42.208;24.952;2022-12-18T01:26:37;52.97;;;27.13;;
33553;SDS011;19885;42.208;24.952;2022-12-18T01:29:02;57.03;;;27.93;;
33553;SDS011;19885;42.208;24.952;2022-12-18T01:31:30;54.00;;;28.10;;
33553;SDS011;19885;42.208;24.952;2022-12-18T01:33:57;52.77;;;28.17;;
33553;SDS011;19885;42.208;24.952;2022-12-18T01:36:26;49.00;;;28.40;;
33553;SDS011;19885;42.208;24.952;2022-12-18T01:38:54;51.67;;;27.53;;
33553;SDS011;19885;42.208;24.952;2022-12-18T01:41:21;52.60;;;26.83;;
33553;SDS011;19885;42.208;24.952;2022-12-18T01:43:56;50.63;;;28.83;;
33553;SDS011;19885;42.208;24.952;2022-12-18T01:46:22;47.13;;;25.20;;
33553;SDS011;19885;42.208;24.952;2022-12-18T01:48:49;43.20;;;25.30;;
33553;SDS011;19885;42.208;24.952;2022-12-18T01:51:17;51.90;;;27.37;;
33553;SDS011;19885;42.208;24.952;2022-12-18T01:53:43;43.03;;;26.23;;
33553;SDS011;19885;42.208;24.952;2022-12-18T01:56:15;48.33;;;25.70;;
33553;SDS011;19885;42.208;24.952;2022-12-18T02:01:25;47.77;;;24.53;;
33553;SDS011;19885;42.208;24.952;2022-12-18T02:03:51;46.07;;;25.33;;
33553;SDS011;19885;42.208;24.952;2022-12-18T02:11:41;51.43;;;29.27;;
33553;SDS011;19885;42.208;24.952;2022-12-18T02:27:11;50.00;;;28.67;;
33553;SDS011;19885;42.208;24.952;2022-12-18T02:29:46;44.23;;;27.53;;
33553;SDS011;19885;42.208;24.952;2022-12-18T02:32:17;41.67;;;25.00;;
33553;SDS011;19885;42.208;24.952;2022-12-18T02:34:57;42.53;;;26.20;;
33553;SDS011;19885;42.208;24.952;2022-12-18T02:37:25;43.00;;;24.77;;
33553;SDS011;19885;42.208;24.952;2022-12-18T02:39:53;45.93;;;25.77;;
33553;SDS011;19885;42.208;24.952;2022-12-18T02:42:21;104.97;;;29.63;;
33553;SDS011;19885;42.208;24.952;2022-12-18T02:44:48;52.83;;;27.10;;
33553;SDS011;19885;42.208;24.952;2022-12-18T02:47:24;45.00;;;25.83;;
33553;SDS011;19885;42.208;24.952;2022-12-18T02:52:39;41.03;;;24.50;;
33553;SDS011;19885;42.208;24.952;2022-12-18T02:57:58;42.07;;;23.37;;
33553;SDS011;19885;42.208;24.952;2022-12-18T03:00:29;37.90;;;22.57;;
33553;SDS011;19885;42.208;24.952;2022-12-18T03:03:05;41.07;;;23.60;;
33553;SDS011;19885;42.208;24.952;2022-12-18T03:05:33;39.00;;;23.17;;
33553;SDS011;19885;42.208;24.952;2022-12-18T03:08:08;42.47;;;23.97;;
33553;SDS011;19885;42.208;24.952;2022-12-18T03:10:42;39.07;;;23.93;;
33553;SDS011;19885;42.208;24.952;2022-12-18T03:13:15;38.20;;;22.73;;
33553;SDS011;19885;42.208;24.952;2022-12-18T03:15:49;37.03;;;22.20;;
33553;SDS011;19885;42.208;24.952;2022-12-18T03:18:37;38.97;;;23.47;;
33553;SDS011;19885;42.208;24.952;2022-12-18T03:21:08;36.50;;;21.93;;
33553;SDS011;19885;42.208;24.952;2022-12-18T03:23:45;36.03;;;21.97;;
33553;SDS011;19885;42.208;24.952;2022-12-18T03:26:15;34.37;;;21.30;;
33553;SDS011;19885;42.208;24.952;2022-12-18T03:28:49;38.67;;;21.63;;
33553;SDS011;19885;42.208;24.952;2022-12-18T03:31:17;38.17;;;23.07;;
33553;SDS011;19885;42.208;24.952;2022-12-18T03:33:55;41.30;;;23.13;;
33553;SDS011;19885;42.208;24.952;2022-12-18T03:36:26;35.30;;;21.27;;
33553;SDS011;19885;42.208;24.952;2022-12-18T03:38:52;33.17;;;21.00;;
33553;SDS011;19885;42.208;24.952;2022-12-18T03:41:19;37.40;;;21.23;;
33553;SDS011;19885;42.208;24.952;2022-12-18T03:48:48;35.10;;;21.90;;
33553;SDS011;19885;42.208;24.952;2022-12-18T03:51:26;34.23;;;20.90;;
33553;SDS011;19885;42.208;24.952;2022-12-18T03:54:03;53.00;;;21.50;;
33553;SDS011;19885;42.208;24.952;2022-12-18T03:56:39;33.43;;;21.17;;
33553;SDS011;19885;42.208;24.952;2022-12-18T03:59:07;32.07;;;20.33;;
33553;SDS011;19885;42.208;24.952;2022-12-18T04:01:36;32.03;;;19.47;;
33553;SDS011;19885;42.208;24.952;2022-12-18T04:04:05;30.67;;;20.03;;
33553;SDS011;19885;42.208;24.952;2022-12-18T04:06:33;33.83;;;20.77;;
33553;SDS011;19885;42.208;24.952;2022-12-18T04:09:00;37.00;;;19.97;;
33553;SDS011;19885;42.208;24.952;2022-12-18T04:11:26;112.97;;;27.83;;
33553;SDS011;19885;42.208;24.952;2022-12-18T04:13:54;35.20;;;22.83;;
33553;SDS011;19885;42.208;24.952;2022-12-18T04:16:22;38.93;;;22.23;;
33553;SDS011;19885;42.208;24.952;2022-12-18T04:18:48;34.73;;;19.83;;
33553;SDS011;19885;42.208;24.952;2022-12-18T04:21:13;34.03;;;20.30;;
33553;SDS011;19885;42.208;24.952;2022-12-18T04:23:39;35.33;;;20.60;;
33553;SDS011;19885;42.208;24.952;2022-12-18T04:26:04;34.93;;;20.17;;
33553;SDS011;19885;42.208;24.952;2022-12-18T04:28:30;34.53;;;21.07;;
33553;SDS011;19885;42.208;24.952;2022-12-18T04:30:55;34.03;;;21.13;;
33553;SDS011;19885;42.208;24.952;2022-12-18T04:33:20;38.80;;;23.10;;
33553;SDS011;19885;42.208;24.952;2022-12-18T04:35:46;40.73;;;23.00;;
33553;SDS011;19885;42.208;24.952;2022-12-18T04:38:12;40.43;;;22.57;;
33553;SDS011;19885;42.208;24.952;2022-12-18T04:40:38;40.93;;;24.73;;
33553;SDS011;19885;42.208;24.952;2022-12-18T04:43:04;39.47;;;23.07;;
33553;SDS011;19885;42.208;24.952;2022-12-18T04:45:30;28.37;;;18.63;;
33553;SDS011;19885;42.208;24.952;2022-12-18T04:47:57;30.20;;;18.60;;
33553;SDS011;19885;42.208;24.952;2022-12-18T04:50:23;32.07;;;19.40;;
33553;SDS011;19885;42.208;24.952;2022-12-18T04:52:51;53.20;;;19.80;;
33553;SDS011;19885;42.208;24.952;2022-12-18T04:55:17;29.57;;;18.57;;
33553;SDS011;19885;42.208;24.952;2022-12-18T04:57:42;30.47;;;18.17;;
33553;SDS011;19885;42.208;24.952;2022-12-18T05:00:07;25.60;;;17.07;;
33553;SDS011;19885;42.208;24.952;2022-12-18T05:02:33;29.87;;;19.43;;
33553;SDS011;19885;42.208;24.952;2022-12-18T05:04:59;28.70;;;18.00;;
33553;SDS011;19885;42.208;24.952;2022-12-18T05:07:24;46.67;;;17.33;;
33553;SDS011;19885;42.208;24.952;2022-12-18T05:09:50;42.90;;;19.70;;
33553;SDS011;19885;42.208;24.952;2022-12-18T05:12:15;51.40;;;21.43;;
33553;SDS011;19885;42.208;24.952;2022-12-18T05:14:41;195.57;;;28.97;;
33553;SDS011;19885;42.208;24.952;2022-12-18T05:17:06;321.73;;;35.40;;
33553;SDS011;19885;42.208;24.952;2022-12-18T05:19:32;215.90;;;31.23;;
33553;SDS011;19885;42.208;24.952;2022-12-18T05:21:57;175.53;;;27.40;;
33553;SDS011;19885;42.208;24.952;2022-12-18T05:24:23;79.50;;;27.33;;
33553;SDS011;19885;42.208;24.952;2022-12-18T05:26:48;39.90;;;22.60;;
33553;SDS011;19885;42.208;24.952;2022-12-18T05:29:14;49.77;;;27.40;;
33553;SDS011;19885;42.208;24.952;2022-12-18T05:31:40;85.60;;;35.17;;
33553;SDS011;19885;42.208;24.952;2022-12-18T05:34:05;129.63;;;43.47;;
33553;SDS011;19885;42.208;24.952;2022-12-18T05:36:31;116.40;;;44.33;;
33553;SDS011;19885;42.208;24.952;2022-12-18T05:38:57;138.13;;;48.03;;
33553;SDS011;19885;42.208;24.952;2022-12-18T05:41:22;104.30;;;35.70;;
33553;SDS011;19885;42.208;24.952;2022-12-18T05:43:47;103.23;;;37.30;;
33553;SDS011;19885;42.208;24.952;2022-12-18T05:46:14;48.50;;;26.73;;
33553;SDS011;19885;42.208;24.952;2022-12-18T05:48:44;50.33;;;25.17;;
33553;SDS011;19885;42.208;24.952;2022-12-18T05:51:12;46.83;;;23.43;;
33553;SDS011;19885;42.208;24.952;2022-12-18T05:53:40;29.30;;;19.07;;
33553;SDS011;19885;42.208;24.952;2022-12-18T05:56:07;28.00;;;18.40;;
33553;SDS011;19885;42.208;24.952;2022-12-18T05:58:38;28.63;;;19.17;;
33553;SDS011;19885;42.208;24.952;2022-12-18T06:01:11;34.37;;;20.20;;
33553;SDS011;19885;42.208;24.952;2022-12-18T06:03:44;38.50;;;24.50;;
33553;SDS011;19885;42.208;24.952;2022-12-18T06:06:14;42.20;;;26.20;;
33553;SDS011;19885;42.208;24.952;2022-12-18T06:08:44;29.33;;;18.13;;
33553;SDS011;19885;42.208;24.952;2022-12-18T06:11:10;22.37;;;14.90;;
33553;SDS011;19885;42.208;24.952;2022-12-18T06:13:36;22.90;;;13.93;;
33553;SDS011;19885;42.208;24.952;2022-12-18T06:16:05;23.30;;;14.20;;
33553;SDS011;19885;42.208;24.952;2022-12-18T06:18:33;19.33;;;12.60;;
33553;SDS011;19885;42.208;24.952;2022-12-18T06:20:59;15.17;;;10.70;;
33553;SDS011;19885;42.208;24.952;2022-12-18T06:23:25;11.40;;;7.93;;
33553;SDS011;19885;42.208;24.952;2022-12-18T06:25:52;10.53;;;8.00;;
33553;SDS011;19885;42.208;24.952;2022-12-18T06:28:17;15.10;;;10.30;;
33553;SDS011;19885;42.208;24.952;2022-12-18T06:30:44;10.00;;;7.17;;
33553;SDS011;19885;42.208;24.952;2022-12-18T06:33:10;12.40;;;7.13;;
33553;SDS011;19885;42.208;24.952;2022-12-18T06:35:36;7.90;;;5.63;;
33553;SDS011;19885;42.208;24.952;2022-12-18T06:38:02;13.23;;;6.90;;
33553;SDS011;19885;42.208;24.952;2022-12-18T06:40:28;9.90;;;5.87;;
33553;SDS011;19885;42.208;24.952;2022-12-18T06:42:54;12.97;;;8.20;;
33553;SDS011;19885;42.208;24.952;2022-12-18T06:45:20;8.73;;;6.07;;
33553;SDS011;19885;42.208;24.952;2022-12-18T06:47:45;8.63;;;5.80;;
33553;SDS011;19885;42.208;24.952;2022-12-18T06:50:11;13.90;;;6.10;;
33553;SDS011;19885;42.208;24.952;2022-12-18T06:52:37;13.07;;;5.03;;
33553;SDS011;19885;42.208;24.952;2022-12-18T06:55:05;9.67;;;4.70;;
33553;SDS011;19885;42.208;24.952;2022-12-18T06:57:33;7.43;;;5.07;;
33553;SDS011;19885;42.208;24.952;2022-12-18T06:59:58;7.20;;;5.60;;
33553;SDS011;19885;42.208;24.952;2022-12-18T07:02:24;5.80;;;4.73;;
33553;SDS011;19885;42.208;24.952;2022-12-18T07:04:49;5.73;;;4.67;;
33553;SDS011;19885;42.208;24.952;2022-12-18T07:07:14;6.17;;;5.07;;
33553;SDS011;19885;42.208;24.952;2022-12-18T07:09:40;6.63;;;4.70;;
33553;SDS011;19885;42.208;24.952;2022-12-18T07:12:05;8.53;;;4.83;;
33553;SDS011;19885;42.208;24.952;2022-12-18T07:14:32;7.07;;;4.63;;
33553;SDS011;19885;42.208;24.952;2022-12-18T07:16:58;9.93;;;5.00;;
33553;SDS011;19885;42.208;24.952;2022-12-18T07:19:24;7.60;;;4.80;;
33553;SDS011;19885;42.208;24.952;2022-12-18T07:21:49;6.43;;;4.73;;
33553;SDS011;19885;42.208;24.952;2022-12-18T07:24:15;7.73;;;5.37;;
33553;SDS011;19885;42.208;24.952;2022-12-18T07:26:40;6.27;;;4.43;;
33553;SDS011;19885;42.208;24.952;2022-12-18T07:29:06;7.03;;;4.50;;
33553;SDS011;19885;42.208;24.952;2022-12-18T07:31:31;9.17;;;4.77;;
33553;SDS011;19885;42.208;24.952;2022-12-18T07:33:57;7.93;;;4.27;;
33553;SDS011;19885;42.208;24.952;2022-12-18T07:36:22;7.67;;;4.70;;
33553;SDS011;19885;42.208;24.952;2022-12-18T07:38:49;5.80;;;4.17;;
33553;SDS011;19885;42.208;24.952;2022-12-18T07:41:15;5.97;;;4.30;;
33553;SDS011;19885;42.208;24.952;2022-12-18T07:43:41;6.73;;;4.30;;
33553;SDS011;19885;42.208;24.952;2022-12-18T07:46:06;6.00;;;4.67;;
33553;SDS011;19885;42.208;24.952;2022-12-18T07:48:33;7.13;;;4.23;;
33553;SDS011;19885;42.208;24.952;2022-12-18T07:50:59;5.90;;;3.97;;
33553;SDS011;19885;42.208;24.952;2022-12-18T07:53:29;5.60;;;4.17;;
33553;SDS011;19885;42.208;24.952;2022-12-18T07:55:55;6.63;;;4.47;;
33553;SDS011;19885;42.208;24.952;2022-12-18T07:58:22;6.80;;;4.77;;
33553;SDS011;19885;42.208;24.952;2022-12-18T08:00:47;8.83;;;4.50;;
33553;SDS011;19885;42.208;24.952;2022-12-18T08:03:13;6.80;;;6.10;;
33553;SDS011;19885;42.208;24.952;2022-12-18T08:05:38;7.40;;;4.27;;
33553;SDS011;19885;42.208;24.952;2022-12-18T08:08:03;8.20;;;5.10;;
33553;SDS011;19885;42.208;24.952;2022-12-18T08:10:29;8.43;;;5.40;;
33553;SDS011;19885;42.208;24.952;2022-12-18T08:12:54;10.70;;;5.83;;
33553;SDS011;19885;42.208;24.952;2022-12-18T08:15:20;7.80;;;5.53;;
33553;SDS011;19885;42.208;24.952;2022-12-18T08:17:45;7.87;;;5.37;;
33553;SDS011;19885;42.208;24.952;2022-12-18T08:20:11;5.73;;;4.83;;
33553;SDS011;19885;42.208;24.952;2022-12-18T08:22:38;10.77;;;5.60;;
33553;SDS011;19885;42.208;24.952;2022-12-18T08:25:04;7.77;;;5.37;;
33553;SDS011;19885;42.208;24.952;2022-12-18T08:27:30;11.33;;;6.07;;
33553;SDS011;19885;42.208;24.952;2022-12-18T08:29:56;8.07;;;5.40;;
33553;SDS011;19885;42.208;24.952;2022-12-18T08:32:22;11.07;;;7.40;;
33553;SDS011;19885;42.208;24.952;2022-12-18T08:34:47;10.50;;;6.17;;
33553;SDS011;19885;42.208;24.952;2022-12-18T08:37:13;8.97;;;5.40;;
33553;SDS011;19885;42.208;24.952;2022-12-18T08:39:38;8.53;;;5.93;;
33553;SDS011;19885;42.208;24.952;2022-12-18T08:42:03;10.73;;;5.57;;
33553;SDS011;19885;42.208;24.952;2022-12-18T08:44:47;9.03;;;6.23;;
33553;SDS011;19885;42.208;24.952;2022-12-18T08:47:13;7.97;;;5.30;;
33553;SDS011;19885;42.208;24.952;2022-12-18T08:49:38;7.43;;;5.43;;
33553;SDS011;19885;42.208;24.952;2022-12-18T08:52:04;9.57;;;7.23;;
33553;SDS011;19885;42.208;24.952;2022-12-18T08:54:29;8.93;;;5.83;;
33553;SDS011;19885;42.208;24.952;2022-12-18T08:56:55;9.67;;;6.37;;
33553;SDS011;19885;42.208;24.952;2022-12-18T08:59:20;10.57;;;6.33;;
33553;SDS011;19885;42.208;24.952;2022-12-18T09:01:46;10.07;;;6.70;;
33553;SDS011;19885;42.208;24.952;2022-12-18T09:04:13;11.17;;;6.57;;
33553;SDS011;19885;42.208;24.952;2022-12-18T09:06:39;12.20;;;7.07;;
33553;SDS011;19885;42.208;24.952;2022-12-18T09:09:05;15.17;;;8.20;;
33553;SDS011;19885;42.208;24.952;2022-12-18T09:11:31;15.30;;;8.40;;
33553;SDS011;19885;42.208;24.952;2022-12-18T09:13:59;10.77;;;6.70;;
33553;SDS011;19885;42.208;24.952;2022-12-18T09:16:26;11.73;;;7.57;;
33553;SDS011;19885;42.208;24.952;2022-12-18T09:18:53;10.50;;;7.03;;
33553;SDS011;19885;42.208;24.952;2022-12-18T09:21:24;7.63;;;5.83;;
33553;SDS011;19885;42.208;24.952;2022-12-18T09:23:51;11.90;;;6.80;;
33553;SDS011;19885;42.208;24.952;2022-12-18T09:26:18;6.27;;;4.83;;
33553;SDS011;19885;42.208;24.952;2022-12-18T09:28:44;12.73;;;7.20;;
33553;SDS011;19885;42.208;24.952;2022-12-18T09:31:10;15.23;;;6.40;;
33553;SDS011;19885;42.208;24.952;2022-12-18T09:33:37;8.97;;;5.90;;
33553;SDS011;19885;42.208;24.952;2022-12-18T09:36:04;8.03;;;6.20;;
33553;SDS011;19885;42.208;24.952;2022-12-18T09:38:31;11.87;;;6.40;;
33553;SDS011;19885;42.208;24.952;2022-12-18T09:40:59;23.97;;;6.83;;
33553;SDS011;19885;42.208;24.952;2022-12-18T09:43:37;14.10;;;9.20;;
33553;SDS011;19885;42.208;24.952;2022-12-18T09:46:11;17.73;;;9.17;;
33553;SDS011;19885;42.208;24.952;2022-12-18T09:48:48;12.30;;;7.47;;
33553;SDS011;19885;42.208;24.952;2022-12-18T09:51:22;12.93;;;8.13;;
33553;SDS011;19885;42.208;24.952;2022-12-18T09:54:02;10.73;;;7.10;;
33553;SDS011;19885;42.208;24.952;2022-12-18T09:56:35;13.10;;;7.67;;
33553;SDS011;19885;42.208;24.952;2022-12-18T09:59:05;11.40;;;7.07;;
33553;SDS011;19885;42.208;24.952;2022-12-18T10:01:31;12.50;;;7.20;;
33553;SDS011;19885;42.208;24.952;2022-12-18T10:03:57;8.80;;;6.00;;
33553;SDS011;19885;42.208;24.952;2022-12-18T10:06:26;10.23;;;6.70;;
33553;SDS011;19885;42.208;24.952;2022-12-18T10:09:18;7.90;;;5.23;;
33553;SDS011;19885;42.208;24.952;2022-12-18T10:11:58;8.40;;;5.53;;
33553;SDS011;19885;42.208;24.952;2022-12-18T10:14:57;9.57;;;6.23;;
33553;SDS011;19885;42.208;24.952;2022-12-18T10:26:03;10.53;;;6.00;;
33553;SDS011;19885;42.208;24.952;2022-12-18T10:28:32;13.57;;;7.07;;
33553;SDS011;19885;42.208;24.952;2022-12-18T10:31:00;15.77;;;7.97;;
33553;SDS011;19885;42.208;24.952;2022-12-18T10:33:28;22.57;;;12.83;;
33553;SDS011;19885;42.208;24.952;2022-12-18T10:35:55;24.80;;;12.87;;
33553;SDS011;19885;42.208;24.952;2022-12-18T10:38:23;17.87;;;9.50;;
33553;SDS011;19885;42.208;24.952;2022-12-18T10:41:04;19.57;;;9.77;;
33553;SDS011;19885;42.208;24.952;2022-12-18T10:48:48;12.70;;;7.40;;
33553;SDS011;19885;42.208;24.952;2022-12-18T10:51:21;33.53;;;14.73;;
33553;SDS011;19885;42.208;24.952;2022-12-18T10:53:53;19.73;;;10.03;;
33553;SDS011;19885;42.208;24.952;2022-12-18T10:56:26;16.60;;;9.60;;
33553;SDS011;19885;42.208;24.952;2022-12-18T10:59:03;14.57;;;7.70;;
33553;SDS011;19885;42.208;24.952;2022-12-18T11:04:25;32.97;;;19.40;;
33553;SDS011;19885;42.208;24.952;2022-12-18T11:09:19;18.43;;;10.90;;
33553;SDS011;19885;42.208;24.952;2022-12-18T11:11:50;26.67;;;12.87;;
33553;SDS011;19885;42.208;24.952;2022-12-18T11:14:21;18.80;;;10.67;;
33553;SDS011;19885;42.208;24.952;2022-12-18T11:17:27;38.30;;;15.97;;
33553;SDS011;19885;42.208;24.952;2022-12-18T11:19:59;33.00;;;17.10;;
33553;SDS011;19885;42.208;24.952;2022-12-18T11:22:29;41.50;;;20.73;;
33553;SDS011;19885;42.208;24.952;2022-12-18T11:24:58;57.57;;;26.13;;
33553;SDS011;19885;42.208;24.952;2022-12-18T11:27:30;51.80;;;23.30;;
33553;SDS011;19885;42.208;24.952;2022-12-18T11:32:57;69.60;;;37.53;;
33553;SDS011;19885;42.208;24.952;2022-12-18T11:35:59;48.20;;;20.87;;
33553;SDS011;19885;42.208;24.952;2022-12-18T11:38:29;68.03;;;32.77;;
33553;SDS011;19885;42.208;24.952;2022-12-18T11:40:58;53.33;;;24.47;;
33553;SDS011;19885;42.208;24.952;2022-12-18T11:43:31;34.63;;;19.70;;
33553;SDS011;19885;42.208;24.952;2022-12-18T11:46:10;35.30;;;15.47;;
33553;SDS011;19885;42.208;24.952;2022-12-18T11:48:48;47.10;;;21.00;;
33553;SDS011;19885;42.208;24.952;2022-12-18T11:51:29;38.73;;;21.20;;
33553;SDS011;19885;42.208;24.952;2022-12-18T11:54:00;40.87;;;20.03;;
33553;SDS011;19885;42.208;24.952;2022-12-18T12:01:46;25.33;;;12.90;;
33553;SDS011;19885;42.208;24.952;2022-12-18T12:17:56;41.57;;;19.13;;
33553;SDS011;19885;42.208;24.952;2022-12-18T12:26:34;22.37;;;13.57;;
33553;SDS011;19885;42.208;24.952;2022-12-18T12:34:34;28.43;;;14.00;;
33553;SDS011;19885;42.208;24.952;2022-12-18T12:40:27;26.83;;;13.17;;
33553;SDS011;19885;42.208;24.952;2022-12-18T12:42:58;22.37;;;11.93;;
33553;SDS011;19885;42.208;24.952;2022-12-18T12:49:08;16.33;;;10.57;;
33553;SDS011;19885;42.208;24.952;2022-12-18T12:53:59;17.67;;;10.73;;
33553;SDS011;19885;42.208;24.952;2022-12-18T12:56:39;15.47;;;11.10;;
33553;SDS011;19885;42.208;24.952;2022-12-18T13:02:21;29.90;;;17.53;;
33553;SDS011;19885;42.208;24.952;2022-12-18T13:07:47;23.07;;;12.67;;
33553;SDS011;19885;42.208;24.952;2022-12-18T13:20:38;34.77;;;16.43;;
33553;SDS011;19885;42.208;24.952;2022-12-18T13:25:48;19.33;;;11.33;;
33553;SDS011;19885;42.208;24.952;2022-12-18T13:28:15;13.37;;;8.50;;
33553;SDS011;19885;42.208;24.952;2022-12-18T13:35:40;15.87;;;10.53;;
33553;SDS011;19885;42.208;24.952;2022-12-18T13:48:30;19.57;;;11.47;;
33553;SDS011;19885;42.208;24.952;2022-12-18T13:51:07;19.13;;;10.40;;
33553;SDS011;19885;42.208;24.952;2022-12-18T13:56:47;19.73;;;11.73;;
33553;SDS011;19885;42.208;24.952;2022-12-18T13:59:21;13.77;;;8.73;;
33553;SDS011;19885;42.208;24.952;2022-12-18T14:01:55;19.37;;;12.17;;
33553;SDS011;19885;42.208;24.952;2022-12-18T14:04:29;15.93;;;10.33;;
33553;SDS011;19885;42.208;24.952;2022-12-18T14:07:18;18.37;;;11.07;;
33553;SDS011;19885;42.208;24.952;2022-12-18T14:09:45;23.87;;;12.77;;
33553;SDS011;19885;42.208;24.952;2022-12-18T14:12:18;24.00;;;10.63;;
33553;SDS011;19885;42.208;24.952;2022-12-18T14:15:17;17.13;;;10.17;;
33553;SDS011;19885;42.208;24.952;2022-12-18T14:18:36;16.57;;;10.00;;
33553;SDS011;19885;42.208;24.952;2022-12-18T14:20:45;22.37;;;13.40;;
33553;SDS011;19885;42.208;24.952;2022-12-18T14:25:56;32.20;;;14.57;;
33553;SDS011;19885;42.208;24.952;2022-12-18T14:28:22;21.43;;;12.97;;
33553;SDS011;19885;42.208;24.952;2022-12-18T14:30:48;22.00;;;11.77;;
33553;SDS011;19885;42.208;24.952;2022-12-18T14:33:14;21.83;;;12.60;;
33553;SDS011;19885;42.208;24.952;2022-12-18T14:35:57;24.53;;;12.87;;
33553;SDS011;19885;42.208;24.952;2022-12-18T14:38:27;17.63;;;11.50;;
33553;SDS011;19885;42.208;24.952;2022-12-18T14:41:00;22.57;;;11.83;;
33553;SDS011;19885;42.208;24.952;2022-12-18T14:43:29;17.50;;;11.63;;
33553;SDS011;19885;42.208;24.952;2022-12-18T14:45:58;25.33;;;13.00;;
33553;SDS011;19885;42.208;24.952;2022-12-18T14:48:37;27.77;;;14.60;;
33553;SDS011;19885;42.208;24.952;2022-12-18T14:51:26;26.17;;;15.43;;
33553;SDS011;19885;42.208;24.952;2022-12-18T14:53:56;23.00;;;15.03;;
33553;SDS011;19885;42.208;24.952;2022-12-18T14:56:24;20.67;;;12.93;;
33553;SDS011;19885;42.208;24.952;2022-12-18T14:58:55;23.10;;;13.90;;
33553;SDS011;19885;42.208;24.952;2022-12-18T15:01:22;28.02;;;13.60;;
33553;SDS011;19885;42.208;24.952;2022-12-18T15:03:53;19.53;;;11.60;;
33553;SDS011;19885;42.208;24.952;2022-12-18T15:06:28;19.20;;;12.33;;
33553;SDS011;19885;42.208;24.952;2022-12-18T15:08:57;23.67;;;12.20;;
33553;SDS011;19885;42.208;24.952;2022-12-18T15:11:34;26.00;;;14.70;;
33553;SDS011;19885;42.208;24.952;2022-12-18T15:17:21;35.20;;;15.80;;
33553;SDS011;19885;42.208;24.952;2022-12-18T15:19:49;24.37;;;13.70;;
33553;SDS011;19885;42.208;24.952;2022-12-18T15:22:18;27.90;;;14.37;;
33553;SDS011;19885;42.208;24.952;2022-12-18T15:24:45;33.33;;;17.93;;
33553;SDS011;19885;42.208;24.952;2022-12-18T15:32:32;23.23;;;11.50;;
33553;SDS011;19885;42.208;24.952;2022-12-18T15:35:41;20.70;;;9.50;;
33553;SDS011;19885;42.208;24.952;2022-12-18T15:37:50;16.20;;;9.07;;
33553;SDS011;19885;42.208;24.952;2022-12-18T15:40:18;16.67;;;10.27;;
33553;SDS011;19885;42.208;24.952;2022-12-18T15:42:46;18.37;;;10.47;;
33553;SDS011;19885;42.208;24.952;2022-12-18T15:45:31;16.20;;;10.37;;
33553;SDS011;19885;42.208;24.952;2022-12-18T15:47:57;15.03;;;9.70;;
33553;SDS011;19885;42.208;24.952;2022-12-18T15:50:23;19.27;;;10.07;;
33553;SDS011;19885;42.208;24.952;2022-12-18T15:52:49;14.67;;;8.57;;
33553;SDS011;19885;42.208;24.952;2022-12-18T15:55:21;18.03;;;10.07;;
33553;SDS011;19885;42.208;24.952;2022-12-18T15:58:06;18.07;;;10.90;;
33553;SDS011;19885;42.208;24.952;2022-12-18T16:00:33;17.30;;;10.53;;
33553;SDS011;19885;42.208;24.952;2022-12-18T16:03:01;16.27;;;9.23;;
33553;SDS011;19885;42.208;24.952;2022-12-18T16:05:28;15.77;;;9.93;;
33553;SDS011;19885;42.208;24.952;2022-12-18T16:07:54;14.30;;;9.33;;
33553;SDS011;19885;42.208;24.952;2022-12-18T16:10:20;15.37;;;8.73;;
33553;SDS011;19885;42.208;24.952;2022-12-18T16:12:46;15.07;;;9.60;;
33553;SDS011;19885;42.208;24.952;2022-12-18T16:15:13;15.50;;;10.13;;
33553;SDS011;19885;42.208;24.952;2022-12-18T16:17:41;15.30;;;9.30;;
33553;SDS011;19885;42.208;24.952;2022-12-18T16:22:40;18.33;;;10.03;;
33553;SDS011;19885;42.208;24.952;2022-12-18T16:25:10;11.13;;;7.13;;
33553;SDS011;19885;42.208;24.952;2022-12-18T16:27:41;13.63;;;8.40;;
33553;SDS011;19885;42.208;24.952;2022-12-18T16:30:08;19.43;;;9.63;;
33553;SDS011;19885;42.208;24.952;2022-12-18T16:32:38;15.10;;;8.57;;
33553;SDS011;19885;42.208;24.952;2022-12-18T16:35:03;13.17;;;8.80;;
33553;SDS011;19885;42.208;24.952;2022-12-18T16:37:29;13.53;;;9.40;;
33553;SDS011;19885;42.208;24.952;2022-12-18T16:39:54;15.37;;;9.40;;
33553;SDS011;19885;42.208;24.952;2022-12-18T16:42:20;12.87;;;8.60;;
33553;SDS011;19885;42.208;24.952;2022-12-18T16:44:46;17.63;;;10.60;;
33553;SDS011;19885;42.208;24.952;2022-12-18T16:47:12;14.57;;;9.30;;
33553;SDS011;19885;42.208;24.952;2022-12-18T16:49:38;16.10;;;9.17;;
33553;SDS011;19885;42.208;24.952;2022-12-18T16:52:05;17.37;;;9.90;;